Terminal Aerodrome Forecast
Issued by NWS

Home | Current Version | Previous Version | Text Only | Print | Product List | Glossary On
Versions: 1 2 3 4 5 6 7 8 9 10 11 12 13 14
537
FTUS46 KSTO 212320
TAFRDD
TAF
KRDD 212320Z 2200/2224 17010KT P6SM FEW250
     FM220500 VRB03KT P6SM SCT250
     FM222100 17008KT P6SM BKN150=

USA.gov is the U.S. government's official web portal to all federal, state and local government web resources and services.